Terminal Aerodrome Forecast
Issued by NWS Charleston, WV

Home | Current Version | Previous Version | Text Only | Print | Product List | Glossary On
Versions: 1 2 3 4 5 6 7 8 9 10 11 12 13 14 15 16 17 18 19 20 21 22 23 24 25
000
FTUS41 KRLX 190500
TAFCRW
TAF
KCRW 190528Z 1906/2006 06004KT P6SM SCT080
     FM190800 08005KT P6SM BKN070
     FM191300 12010G15KT P6SM BKN060
     FM191500 12013G23KT P6SM OVC035
     FM191700 12014G22KT 5SM SHRA BR OVC035
     FM191900 12014G21KT 3SM SHRA BR OVC025
     FM200100 14013G22KT 6SM SHRA BR OVC035
     FM200300 16009KT 6SM BR BKN040=

USA.gov is the U.S. government's official web portal to all federal, state and local government web resources and services.